Flight Track Log - Related Links

Times and Time Zones

All times are in EDT time to prevent confusion due to time zone crossing. See the UAL4457 flight status page for this flight to view local times or setup timezone preferences in your user account.

Time Position Orientation Groundspeed Altitude Reporting Facility
EDT Latitude Longitude Course Direction KTS MPH feet Rate Location/Type
Thu 04:32:06 PM 29.9778 -95.3367 32° Northeast 202 232 600  Level Houston Center
Thu 04:33:31 PM 30.0044 -95.3964 297° West 216 249 3,300 1,597 Climbing Houston Center
Thu 04:34:10 PM 30.0450 -95.3900 North 224 258 3,900 1,701 Climbing Houston Center
Thu 04:34:38 PM 30.0853 -95.3867 North 281 323 5,200 2,190 Climbing Houston Center
Thu 04:35:00 PM 30.3896 -95.0083 35° Northeast  Level FlightAware Approximate
Thu 04:35:13 PM 30.1239 -95.3822 North 278 320 6,200  Level Houston Center
Thu 04:35:39 PM 30.1664 -95.3767 North 302 348 7,700 2,262 Climbing Houston Center
Thu 04:36:00 PM 30.4902 -94.9312 35° Northeast  Level FlightAware Approximate
Thu 04:36:14 PM 30.2031 -95.3597 22° Northeast 300 345 8,500  Level Houston Center
Thu 04:36:40 PM 30.2369 -95.3222 44° Northeast 321 369 9,700 1,935 Climbing Houston Center
Thu 04:37:00 PM 30.5916 -94.8489 32° Northeast  Level FlightAware Approximate
Thu 04:37:16 PM 30.2658 -95.2844 48° Northeast 320 368 10,500  Level Houston Center
Thu 04:38:18 PM 30.3278 -95.2014 49° Northeast 333 383 12,400 1,632 Climbing Houston Center
Thu 04:39:21 PM 30.3933 -95.1122 50° Northeast 353 406 13,900 1,392 Climbing Houston Center
Thu 04:40:23 PM 30.4689 -95.0056 51° Northeast 389 448 15,300 1,500 Climbing Houston Center
Thu 04:41:25 PM 30.5608 -94.8856 48° Northeast 412 474 17,000 1,597 Climbing Houston Center
Thu 04:42:27 PM 30.6583 -94.8111 33° Northeast 419 482 18,600 1,452 Climbing Houston Center
Thu 04:43:29 PM 30.7572 -94.7353 33° Northeast 426 490 20,000 1,355 Climbing Houston Center
Thu 04:44:31 PM 30.8556 -94.6589 34° Northeast 428 493 21,400 1,424 Climbing Houston Center
Thu 04:45:27 PM 30.9581 -94.5792 34° Northeast 425 489 22,800 1,448 Climbing Fort Worth Center
Thu 04:46:27 PM 31.0567 -94.5011 34° Northeast 425 489 24,200 1,250 Climbing Fort Worth Center
Thu 04:47:27 PM 31.1469 -94.4378 31° Northeast 425 489 25,300 1,100 Climbing Fort Worth Center
Thu 04:48:27 PM 31.2472 -94.3542 35° Northeast 432 497 26,400 1,050 Climbing Fort Worth Center
Thu 04:49:27 PM 31.3517 -94.2753 33° Northeast 443 510 27,400 1,050 Climbing Fort Worth Center
Thu 04:50:27 PM 31.4583 -94.1914 34° Northeast 443 510 28,500 800 Climbing Fort Worth Center
Thu 04:51:27 PM 31.5647 -94.1072 34° Northeast 449 517 29,000 250 Climbing Fort Worth Center
Thu 04:52:27 PM 31.6750 -94.0203 34° Northeast 459 528 29,000  Level Fort Worth Center
Thu 04:53:27 PM 31.7978 -93.9278 33° Northeast 486 559 29,000  Level Fort Worth Center
Thu 04:54:27 PM 31.9119 -93.8331 35° Northeast 499 574 29,000 350 Level Fort Worth Center
Thu 04:55:27 PM 32.0489 -93.7272 33° Northeast 518 596 29,700 1,450 Climbing Fort Worth Center
Thu 04:56:27 PM 32.1528 -93.6444 34° Northeast 513 590 31,900 2,050 Climbing Fort Worth Center
Thu 04:57:27 PM 32.2586 -93.5517 37° Northeast 494 568 33,800 1,500 Climbing Fort Worth Center
Thu 04:58:27 PM 32.3625 -93.4686 34° Northeast 467 537 34,900 600 Climbing Fort Worth Center
Thu 04:59:27 PM 32.4725 -93.3825 33° Northeast 455 524 35,000 50 Climbing Fort Worth Center
Thu 05:00:27 PM 32.5964 -93.2808 35° Northeast 482 555 35,000  Level Fort Worth Center
Thu 05:01:27 PM 32.7144 -93.1839 35° Northeast 497 572 35,000  Level Fort Worth Center
Thu 05:02:27 PM 32.8342 -93.0869 34° Northeast 510 587 35,000  Level Fort Worth Center
Thu 05:03:27 PM 32.9539 -92.9894 34° Northeast 515 593 35,000  Level Fort Worth Center
Thu 05:04:27 PM 33.0694 -92.8969 34° Northeast 515 593 35,000  Level Fort Worth Center
Thu 05:05:27 PM 33.1831 -92.8044 34° Northeast 510 587 35,000  Level Fort Worth Center
Thu 05:07:53 PM 33.4197 -92.5025 47° Northeast 512 589 35,000  Level Memphis Center
Thu 05:08:53 PM 33.5097 -92.3628 52° Northeast 518 596 35,000  Level Memphis Center
Thu 05:09:53 PM 33.5953 -92.2325 52° Northeast 518 596 35,000  Level Memphis Center
Thu 05:10:53 PM 33.6828 -92.1022 51° Northeast 506 582 35,000 50 Level Memphis Center
Thu 05:11:53 PM 33.7658 -91.9714 53° Northeast 506 582 35,100 700 Climbing Memphis Center
Thu 05:12:53 PM 33.8508 -91.8406 52° Northeast 501 577 36,400 950 Climbing Memphis Center
Thu 05:13:53 PM 33.9294 -91.7142 53° Northeast 488 562 37,000 300 Climbing Memphis Center
Thu 05:14:53 PM 34.0122 -91.5850 52° Northeast 476 548 37,000  Level Memphis Center
Thu 05:15:53 PM 34.0950 -91.4533 53° Northeast 483 556 37,000  Level Memphis Center
Thu 05:16:53 PM 34.1817 -91.3189 52° Northeast 500 575 37,000  Level Memphis Center
Thu 05:17:53 PM 34.2575 -91.1992 53° Northeast 500 575 37,000  Level Memphis Center
Thu 05:18:53 PM 34.3397 -91.0689 53° Northeast 495 570 37,000  Level Memphis Center
Thu 05:20:00 PM 34.4176 -90.9380 54° Northeast  Level FlightAware Approximate
Thu 05:20:53 PM 34.5058 -90.8083 54° Northeast 484 557 37,000  Level Memphis Center
Thu 05:21:53 PM 34.5875 -90.6750 53° Northeast 484 557 37,000  Level Memphis Center
Thu 05:22:53 PM 34.6692 -90.5464 52° Northeast 484 557 37,000  Level Memphis Center
Thu 05:23:53 PM 34.7569 -90.4000 54° Northeast 484 557 37,000  Level Memphis Center
Thu 05:24:53 PM 34.8403 -90.2633 53° Northeast 491 565 37,000  Level Memphis Center
Thu 05:25:53 PM 34.9300 -90.1267 51° Northeast 504 580 37,000  Level Memphis Center
Thu 05:26:53 PM 35.0172 -89.9844 53° Northeast 519 597 37,000  Level Memphis Center
Thu 05:27:53 PM 35.0814 -89.8192 65° Northeast 526 605 37,000  Level Memphis Center
Thu 05:28:53 PM 35.1306 -89.6689 68° East 526 605 37,000  Level Memphis Center
Thu 05:29:53 PM 35.1858 -89.5086 67° East 516 594 37,000  Level Memphis Center
Thu 05:30:53 PM 35.2411 -89.3503 67° East 510 587 37,000  Level Memphis Center
Thu 05:31:53 PM 35.3000 -89.1867 66° East 510 587 37,000  Level Memphis Center
Thu 05:32:53 PM 35.3608 -89.0078 67° East 517 595 37,000  Level Memphis Center
Thu 05:33:53 PM 35.4194 -88.8411 67° East 522 601 37,000  Level Memphis Center
Thu 05:34:53 PM 35.4756 -88.6744 67° East 522 601 37,000  Level Memphis Center
Thu 05:35:53 PM 35.5317 -88.5100 67° East 522 601 37,000  Level Memphis Center
Thu 05:36:53 PM 35.5875 -88.3478 67° East 517 595 37,000  Level Memphis Center
Thu 05:37:53 PM 35.6433 -88.1881 67° East 512 589 37,000  Level Memphis Center
Thu 05:38:53 PM 35.6967 -88.0333 67° East 497 572 37,000  Level Memphis Center
Thu 05:39:53 PM 35.7481 -87.8758 68° East 497 572 37,000  Level Memphis Center
Thu 05:40:53 PM 35.7989 -87.7208 68° East 497 572 37,000  Level Memphis Center
Thu 05:41:53 PM 35.8497 -87.5631 68° East 490 564 37,000  Level Memphis Center
Thu 05:42:53 PM 35.9025 -87.4047 68° East 490 564 37,000  Level Memphis Center
Thu 05:43:53 PM 35.9469 -87.2700 68° East 485 558 37,000  Level Memphis Center
Thu 05:44:53 PM 35.9972 -87.1142 68° East 485 558 37,000  Level Memphis Center
Thu 05:45:53 PM 36.0472 -86.9581 68° East 485 558 37,000  Level Memphis Center
Thu 05:46:53 PM 36.0931 -86.8072 69° East 478 550 37,000  Level Memphis Center
Thu 05:47:53 PM 36.1533 -86.6531 64° Northeast 484 557 37,000 -200 Level Memphis Center
Thu 05:48:53 PM 36.2431 -86.5253 49° Northeast 484 557 36,600 -850 Descending Memphis Center
Thu 05:49:53 PM 36.3372 -86.3972 48° Northeast 489 563 35,300 -1,350 Descending Memphis Center
Thu 05:50:53 PM 36.4286 -86.2639 50° Northeast 496 571 33,900 -1,150 Descending Memphis Center
Thu 05:51:53 PM 36.5183 -86.1353 49° Northeast 496 571 33,000 -1,179 Descending Memphis Center
Thu 05:53:46 PM 36.6822 -85.9008 49° Northeast 489 563 30,500 -1,371 Descending Indianapolis Center
Thu 05:54:48 PM 36.7864 -85.7494 49° Northeast 490 564 29,000 -732 Descending Indianapolis Center
Thu 05:55:49 PM 36.8747 -85.6200 50° Northeast 486 559 29,000  Level Indianapolis Center
Thu 05:56:51 PM 36.9603 -85.4928 50° Northeast 483 556 29,000 -339 Level Indianapolis Center
Thu 05:57:53 PM 37.0564 -85.3531 49° Northeast 490 564 28,300 -1,220 Descending Indianapolis Center
Thu 05:58:54 PM 37.1422 -85.2242 50° Northeast 483 556 26,500 -2,000 Descending Indianapolis Center
Thu 05:59:56 PM 37.2233 -85.1036 50° Northeast 453 521 24,200 -2,274 Descending Indianapolis Center
Thu 06:00:58 PM 37.3011 -84.9872 50° Northeast 438 504 21,800 -2,293 Descending Indianapolis Center
Thu 06:01:59 PM 37.3764 -84.8736 50° Northeast 423 487 19,500 -2,537 Descending Indianapolis Center
Thu 06:03:01 PM 37.4508 -84.7625 50° Northeast 415 478 16,600 -2,855 Descending Indianapolis Center
Thu 06:04:03 PM 37.5494 -84.7036 25° Northeast 409 471 13,600 -2,952 Descending Indianapolis Center
Thu 06:05:05 PM 37.6689 -84.6625 15° North 378 435 10,500 -2,146 Descending Indianapolis Center
Thu 06:06:06 PM 37.7508 -84.6147 25° Northeast 331 381 9,200 -1,610 Descending Indianapolis Center
Thu 06:07:08 PM 37.8297 -84.5669 26° Northeast 316 364 7,200 -1,887 Descending Indianapolis Center
Thu 06:08:10 PM 37.9100 -84.5278 21° North 312 359 5,300 -1,561 Descending Indianapolis Center
Thu 06:09:11 PM 37.9906 -84.4897 20° North 311 358 4,000 -1,279 Descending Indianapolis Center

Login

Don't have an account? Register now (free) for customized features, flight alerts, and more!